Airport Name : Comox

Other Name : Comox

ICAO : CYQQ

IATA : YQQ

FAA :

Latitude : 49.710833

Longitude : -124.886667

Country : Canada

Local Date and Time : 20 Oct 2020 15:58

 

TAF (Terminal Aerodrome Forecast)

TAF CYQQ 201742Z 2018/2118 VRB03KT P6SM FEW030 BKN070 FM202300 36005KT P6SM BKN030 TEMPO 2104/2108 BKN020 FM210800 32005KT P6SM SCT040 BECMG 2115/2117 34015KT RMK NXT FCST BY 210000Z

 

METAR (METeorological Aerodrome Report)

CYQQ 202200Z 02003KT 20SM FEW040 FEW078 SCT230 12/06 A3016 RMK CU1AC2CI1 SLP212

CYQQ 202100Z 00000KT 15SM FEW050 SCT080 11/07 A3017 RMK SC2AC2 SLP217

CYQQ 202000Z 00000KT 15SM FEW050 SCT080 11/07 A3018 RMK SC2AC2 SLP221

CYQQ 201900Z 06003KT 15SM BKN065 BKN080 11/07 A3019 RMK SC5AC2 SLP225

To Charter a Jet Click here.